Time;durP1;ratioP1;P1;durP2;ratioP2;P2;SDS_P1;SDS_P2;PMS_P1;PMS_P2;Temp;Humidity;BMP_temperature;BMP_pressure;BME280_temperature;BME280_humidity;BME280_pressure;Samples;Min_cycle;Max_cycle;Signal;HPM_P1;HPM_P2
2022/08/20 00:00:15;;;;;;;;;;;13.80;99.30;;;;;;5095111;28;20312;-70
2022/08/20 00:02:46;;;;;;;;;;;13.90;99.60;;;;;;5095201;28;19962;-70
2022/08/20 00:05:14;;;;;;;;;;;13.90;99.50;;;;;;5095267;28;20412;-70
2022/08/20 00:07:41;;;;;;;;;;;13.90;98.70;;;;;;5095143;28;20466;-71
2022/08/20 00:10:08;;;;;;;;;;;14.00;98.70;;;;;;5094766;28;19968;-70
2022/08/20 00:12:35;;;;;;;;;;;14.00;99.30;;;;;;5095059;28;19909;-70
2022/08/20 00:15:04;;;;;;;;;;;14.10;99.00;;;;;;5094992;28;19908;-68
2022/08/20 00:17:36;;;;;;;;;;;14.20;98.80;;;;;;5094945;28;19953;-69
2022/08/20 00:20:09;;;;;;;;;;;14.20;98.70;;;;;;5094669;28;20005;-69
2022/08/20 00:22:36;;;;;;;;;;;14.30;98.80;;;;;;5093794;28;19921;-69
2022/08/20 00:25:06;;;;;;;;;;;14.30;98.40;;;;;;5094714;28;19953;-69
2022/08/20 00:27:33;;;;;;;;;;;14.40;99.00;;;;;;5094745;28;19980;-69
2022/08/20 00:30:00;;;;;;;;;;;14.40;99.10;;;;;;5094822;28;19915;-69
2022/08/20 00:32:27;;;;;;;;;;;14.40;98.50;;;;;;5094567;28;19915;-69
2022/08/20 00:34:53;;;;;;;;;;;14.50;98.50;;;;;;5094549;28;19912;-69
2022/08/20 00:37:20;;;;;;;;;;;14.60;98.40;;;;;;5093161;28;19990;-68
2022/08/20 00:39:47;;;;;;;;;;;14.60;98.50;;;;;;5094419;28;20019;-69
2022/08/20 00:42:13;;;;;;;;;;;14.80;99.10;;;;;;5094308;28;19909;-69
2022/08/20 00:44:45;;;;;;;;;;;14.90;98.00;;;;;;5094329;28;19908;-69
2022/08/20 00:47:12;;;;;;;;;;;14.90;98.00;;;;;;5094265;28;19947;-68
2022/08/20 00:49:39;;;;;;;;;;;14.90;97.90;;;;;;5064545;28;19916;-69
2022/08/20 00:52:11;;;;;;;;;;;15.00;98.10;;;;;;5053090;28;20004;-69
2022/08/20 00:54:44;;;;;;;;;;;15.00;98.10;;;;;;5053379;28;19999;-68
2022/08/20 00:57:16;;;;;;;;;;;15.00;98.00;;;;;;5053243;28;19955;-69
2022/08/20 00:59:43;;;;;;;;;;;15.00;98.20;;;;;;5053205;28;19966;-68
2022/08/20 01:02:12;;;;;;;;;;;15.00;98.00;;;;;;5052842;28;19917;-68
2022/08/20 01:04:39;;;;;;;;;;;15.10;98.10;;;;;;5053495;28;19919;-70
2022/08/20 01:07:06;;;;;;;;;;;15.10;97.70;;;;;;5053207;28;19952;-68
2022/08/20 01:09:34;;;;;;;;;;;15.10;97.80;;;;;;5052936;28;19908;-68
2022/08/20 01:12:01;;;;;;;;;;;15.20;97.50;;;;;;5053150;28;19956;-68
2022/08/20 01:17:02;;;;;;;;;;;15.50;97.20;;;;;;5053137;28;20296;-70
2022/08/20 01:19:31;;;;;;;;;;;15.80;97.80;;;;;;5052928;28;19920;-70
2022/08/20 01:21:58;;;;;;;;;;;15.80;96.90;;;;;;5052903;28;19916;-69
2022/08/20 01:24:40;;;;;;;;;;;15.80;97.10;;;;;;5052612;28;19908;-69
2022/08/20 01:27:07;;;;;;;;;;;15.70;97.30;;;;;;5052900;28;19955;-69
2022/08/20 01:29:35;;;;;;;;;;;15.60;97.50;;;;;;5052730;28;19915;-69
2022/08/20 01:32:03;;;;;;;;;;;15.60;97.50;;;;;;5052905;28;19908;-68
2022/08/20 01:34:29;;;;;;;;;;;15.60;97.00;;;;;;5052873;28;19932;-69
2022/08/20 01:36:57;;;;;;;;;;;15.60;97.40;;;;;;5054433;28;19913;-70
2022/08/20 01:39:28;;;;;;;;;;;15.50;97.50;;;;;;5052476;28;19909;-69
2022/08/20 01:42:04;;;;;;;;;;;15.50;97.50;;;;;;5052576;28;19916;-69
2022/08/20 01:44:31;;;;;;;;;;;15.50;97.20;;;;;;5052353;28;20371;-69
2022/08/20 01:47:07;;;;;;;;;;;15.50;97.30;;;;;;5052576;28;19917;-69
2022/08/20 01:49:34;;;;;;;;;;;15.60;97.50;;;;;;5052699;28;19909;-69
2022/08/20 01:52:05;;;;;;;;;;;15.60;97.20;;;;;;5052557;28;19917;-69
2022/08/20 01:54:32;;;;;;;;;;;15.60;97.40;;;;;;5052406;28;19909;-69
2022/08/20 01:57:05;;;;;;;;;;;15.60;97.00;;;;;;5052396;28;19920;-69
2022/08/20 01:59:32;;;;;;;;;;;15.60;97.20;;;;;;5052507;28;19908;-69
2022/08/20 02:01:59;;;;;;;;;;;15.60;97.60;;;;;;5071741;28;19920;-69
2022/08/20 02:04:26;;;;;;;;;;;15.60;97.30;;;;;;5093051;28;19915;-69
2022/08/20 02:06:54;;;;;;;;;;;15.60;97.10;;;;;;5093377;28;19955;-69
2022/08/20 02:09:21;;;;;;;;;;;15.60;96.80;;;;;;5093101;28;19908;-69
2022/08/20 02:11:48;;;;;;;;;;;15.50;97.00;;;;;;5093260;28;20351;-69
2022/08/20 02:14:16;;;;;;;;;;;15.50;97.20;;;;;;5091694;28;19908;-68
2022/08/20 02:16:45;;;;;;;;;;;15.60;97.50;;;;;;5076102;28;19959;-69
2022/08/20 02:19:32;;;;;;;;;;;15.60;97.50;;;;;;5072154;28;20367;-69
2022/08/20 02:21:59;;;;;;;;;;;15.60;97.60;;;;;;5072811;28;20007;-69
2022/08/20 02:24:26;;;;;;;;;;;15.60;98.10;;;;;;5072626;28;19940;-69
2022/08/20 02:26:54;;;;;;;;;;;15.60;97.20;;;;;;5072791;28;19908;-69
2022/08/20 02:29:21;;;;;;;;;;;15.60;97.70;;;;;;5072922;28;20049;-69
2022/08/20 02:31:48;;;;;;;;;;;15.60;97.70;;;;;;5067746;28;20366;-69
2022/08/20 02:34:14;;;;;;;;;;;15.60;97.70;;;;;;5093231;28;19919;-69
2022/08/20 02:36:42;;;;;;;;;;;15.60;97.80;;;;;;5093276;28;19908;-69
2022/08/20 02:39:11;;;;;;;;;;;15.70;97.80;;;;;;5091741;28;20293;-69
2022/08/20 02:41:38;;;;;;;;;;;15.60;97.50;;;;;;5093034;28;19916;-69
2022/08/20 02:44:05;;;;;;;;;;;15.60;97.80;;;;;;5092819;28;19912;-68
2022/08/20 02:46:32;;;;;;;;;;;15.60;98.10;;;;;;5094446;28;19923;-69
2022/08/20 02:48:59;;;;;;;;;;;15.60;97.90;;;;;;5096851;28;20400;-69
2022/08/20 02:51:26;;;;;;;;;;;15.60;98.00;;;;;;5096770;28;19908;-66
2022/08/20 02:53:53;;;;;;;;;;;15.60;98.20;;;;;;5074147;28;19912;-69
2022/08/20 02:56:19;;;;;;;;;;;15.60;97.80;;;;;;5057972;28;20007;-69
2022/08/20 02:58:46;;;;;;;;;;;15.60;98.20;;;;;;5056024;28;19971;-68
2022/08/20 03:01:16;;;;;;;;;;;15.50;98.40;;;;;;5056127;28;19917;-69
2022/08/20 03:03:43;;;;;;;;;;;15.60;98.70;;;;;;5055968;28;20338;-70
2022/08/20 03:06:10;;;;;;;;;;;15.60;98.00;;;;;;5055397;28;19909;-70
2022/08/20 03:08:40;;;;;;;;;;;15.60;98.70;;;;;;5055340;28;19970;-69
2022/08/20 03:11:07;;;;;;;;;;;15.60;98.70;;;;;;5055114;28;20368;-69
2022/08/20 03:13:34;;;;;;;;;;;15.50;98.60;;;;;;5055374;28;19920;-69
2022/08/20 03:16:02;;;;;;;;;;;15.50;98.60;;;;;;5055239;28;20291;-69
2022/08/20 03:18:30;;;;;;;;;;;15.50;97.70;;;;;;5055204;28;20348;-69
2022/08/20 03:20:57;;;;;;;;;;;15.50;98.10;;;;;;5054886;28;19987;-69
2022/08/20 03:23:25;;;;;;;;;;;15.50;98.40;;;;;;5055100;28;19909;-70
2022/08/20 03:25:52;;;;;;;;;;;15.50;97.90;;;;;;5055073;28;19913;-69
2022/08/20 03:28:18;;;;;;;;;;;15.50;98.20;;;;;;5054730;28;19919;-69
2022/08/20 03:30:45;;;;;;;;;;;15.50;97.70;;;;;;5054857;28;19955;-69
2022/08/20 03:33:12;;;;;;;;;;;15.60;97.70;;;;;;5054946;28;19915;-69
2022/08/20 03:35:39;;;;;;;;;;;15.60;99.10;;;;;;5054743;28;20286;-69
2022/08/20 03:38:07;;;;;;;;;;;15.50;98.90;;;;;;5054668;28;20000;-67
2022/08/20 03:40:34;;;;;;;;;;;15.60;97.50;;;;;;5054498;28;19920;-67
2022/08/20 03:43:01;;;;;;;;;;;15.60;98.20;;;;;;5054829;28;19909;-67
2022/08/20 03:45:28;;;;;;;;;;;15.60;98.10;;;;;;5054709;28;20355;-68
2022/08/20 03:47:56;;;;;;;;;;;15.60;98.50;;;;;;5054690;28;19909;-67
2022/08/20 03:50:24;;;;;;;;;;;15.60;98.60;;;;;;5069616;28;19958;-69
2022/08/20 03:52:52;;;;;;;;;;;15.60;98.60;;;;;;5054361;28;20374;-68
2022/08/20 03:55:20;;;;;;;;;;;15.60;98.80;;;;;;5054416;28;19916;-68
2022/08/20 03:57:48;;;;;;;;;;;15.60;98.40;;;;;;5054193;28;19916;-68
2022/08/20 04:00:18;;;;;;;;;;;15.60;98.70;;;;;;5054023;28;20291;-69
2022/08/20 04:02:45;;;;;;;;;;;15.60;98.30;;;;;;5054300;28;19916;-69
2022/08/20 04:05:12;;;;;;;;;;;15.70;98.90;;;;;;5054153;28;19909;-70
2022/08/20 04:07:39;;;;;;;;;;;15.60;99.00;;;;;;5054055;28;20019;-68
2022/08/20 04:10:08;;;;;;;;;;;15.60;99.20;;;;;;5052308;28;20051;-69
2022/08/20 04:12:39;;;;;;;;;;;15.60;99.00;;;;;;5054041;28;20354;-68
2022/08/20 04:15:08;;;;;;;;;;;15.60;99.20;;;;;;5053925;28;19908;-68
2022/08/20 04:17:36;;;;;;;;;;;15.60;98.90;;;;;;5086345;28;19909;-67
2022/08/20 04:20:04;;;;;;;;;;;15.70;98.50;;;;;;5053718;28;19917;-69
2022/08/20 04:22:30;;;;;;;;;;;15.70;99.30;;;;;;5054081;28;20283;-69
2022/08/20 04:24:57;;;;;;;;;;;15.70;99.20;;;;;;5053779;28;19909;-68
2022/08/20 04:27:24;;;;;;;;;;;15.70;99.40;;;;;;5053768;28;19955;-69
2022/08/20 04:29:50;;;;;;;;;;;15.70;99.40;;;;;;5053880;28;20351;-70
2022/08/20 04:32:17;;;;;;;;;;;15.70;99.60;;;;;;5053458;28;19909;-68
2022/08/20 04:34:44;;;;;;;;;;;15.80;99.90;;;;;;5053672;28;19936;-67
2022/08/20 04:37:11;;;;;;;;;;;15.80;99.40;;;;;;5053508;28;20374;-68
2022/08/20 04:39:38;;;;;;;;;;;15.70;99.90;;;;;;5053356;28;19908;-69
2022/08/20 04:42:04;;;;;;;;;;;15.70;99.40;;;;;;5053314;28;20361;-68
2022/08/20 04:44:31;;;;;;;;;;;15.70;99.90;;;;;;5053183;28;19909;-68
2022/08/20 04:46:58;;;;;;;;;;;15.80;99.50;;;;;;5085571;28;20004;-69
2022/08/20 04:49:25;;;;;;;;;;;15.80;99.70;;;;;;5053381;28;20320;-68
2022/08/20 04:51:53;;;;;;;;;;;15.80;99.90;;;;;;5053306;28;20047;-68
2022/08/20 04:54:20;;;;;;;;;;;15.80;99.90;;;;;;5085248;28;19916;-69
2022/08/20 04:56:47;;;;;;;;;;;15.80;99.90;;;;;;5053188;28;19913;-68
2022/08/20 04:59:13;;;;;;;;;;;15.90;99.70;;;;;;5053091;28;19962;-68
2022/08/20 05:01:40;;;;;;;;;;;16.10;99.80;;;;;;5053055;28;20005;-67
2022/08/20 05:04:07;;;;;;;;;;;16.10;99.50;;;;;;5053017;28;19909;-68
2022/08/20 05:06:33;;;;;;;;;;;16.20;99.60;;;;;;5053085;28;19916;-67
2022/08/20 05:09:00;;;;;;;;;;;16.10;99.40;;;;;;5052459;28;19909;-67
2022/08/20 05:11:28;;;;;;;;;;;16.20;99.50;;;;;;5052962;28;19963;-68
2022/08/20 05:13:54;;;;;;;;;;;16.30;99.30;;;;;;5052953;28;19909;-67
2022/08/20 05:16:22;;;;;;;;;;;16.30;99.50;;;;;;5052877;28;20310;-68
2022/08/20 05:18:50;;;;;;;;;;;16.30;99.70;;;;;;5053028;28;19913;-69
2022/08/20 05:21:17;;;;;;;;;;;16.40;99.50;;;;;;5052663;28;19927;-68
2022/08/20 05:23:44;;;;;;;;;;;16.30;99.60;;;;;;5052658;28;20007;-69
2022/08/20 05:26:11;;;;;;;;;;;16.40;99.60;;;;;;5052767;28;19915;-69
2022/08/20 05:28:39;;;;;;;;;;;16.30;99.80;;;;;;5052525;28;19909;-68
2022/08/20 05:31:08;;;;;;;;;;;16.30;99.30;;;;;;5052714;28;19955;-69
2022/08/20 05:33:36;;;;;;;;;;;16.40;99.00;;;;;;5052681;28;20318;-68
2022/08/20 05:36:05;;;;;;;;;;;16.40;99.30;;;;;;5052547;28;19909;-69
2022/08/20 05:38:33;;;;;;;;;;;16.30;98.70;;;;;;5052439;28;19909;-69
2022/08/20 05:41:00;;;;;;;;;;;16.30;99.20;;;;;;5052436;28;19917;-69
2022/08/20 05:43:27;;;;;;;;;;;16.30;99.30;;;;;;5051152;28;19909;-69
2022/08/20 05:45:55;;;;;;;;;;;16.40;99.50;;;;;;5052185;28;19921;-69
2022/08/20 05:48:22;;;;;;;;;;;16.30;99.40;;;;;;5051045;28;20426;-69
2022/08/20 05:50:50;;;;;;;;;;;16.30;99.50;;;;;;5052538;28;20351;-69
2022/08/20 05:53:18;;;;;;;;;;;16.40;99.40;;;;;;5052472;28;19908;-69
2022/08/20 05:55:45;;;;;;;;;;;16.40;99.30;;;;;;5052404;28;19994;-69
2022/08/20 05:58:17;;;;;;;;;;;16.40;99.80;;;;;;5052109;28;19952;-69
2022/08/20 06:00:44;;;;;;;;;;;16.40;99.80;;;;;;5052599;28;20410;-68
2022/08/20 06:05:55;;;;;;;;;;;16.40;99.90;;;;;;5052288;28;19916;-68
2022/08/20 06:08:23;;;;;;;;;;;16.40;99.90;;;;;;5052094;28;19913;-67
2022/08/20 06:10:50;;;;;;;;;;;16.40;99.90;;;;;;5052317;28;20004;-67
2022/08/20 06:13:17;;;;;;;;;;;16.40;99.90;;;;;;5052177;28;19909;-67
2022/08/20 06:15:43;;;;;;;;;;;16.40;99.90;;;;;;5052417;28;19908;-68
2022/08/20 06:18:10;;;;;;;;;;;16.40;99.90;;;;;;5051994;28;19916;-69
2022/08/20 06:20:38;;;;;;;;;;;16.40;99.90;;;;;;5052520;28;19913;-69
2022/08/20 06:23:05;;;;;;;;;;;16.30;99.90;;;;;;5055851;28;19909;-68
2022/08/20 06:25:33;;;;;;;;;;;16.20;99.90;;;;;;5056264;28;19916;-70
2022/08/20 06:28:01;;;;;;;;;;;16.20;99.90;;;;;;5056056;28;19908;-68
2022/08/20 06:30:28;;;;;;;;;;;16.30;99.90;;;;;;5056235;28;19909;-68
2022/08/20 06:32:55;;;;;;;;;;;16.20;99.90;;;;;;5056119;28;19963;-68
2022/08/20 06:35:21;;;;;;;;;;;16.20;99.90;;;;;;5055905;28;19916;-68
2022/08/20 06:37:49;;;;;;;;;;;16.10;99.90;;;;;;5055959;28;19915;-68
2022/08/20 06:40:18;;;;;;;;;;;16.00;99.90;;;;;;5055506;28;19927;-69
2022/08/20 06:42:45;;;;;;;;;;;15.90;99.90;;;;;;5055789;28;19909;-69
2022/08/20 06:45:16;;;;;;;;;;;15.90;99.90;;;;;;5055534;28;19916;-69
2022/08/20 06:47:44;;;;;;;;;;;15.80;99.90;;;;;;5055722;28;19909;-69
2022/08/20 06:50:16;;;;;;;;;;;15.70;99.90;;;;;;5055457;28;19916;-68
2022/08/20 06:52:44;;;;;;;;;;;15.60;99.90;;;;;;5055691;28;19908;-68
2022/08/20 06:55:11;;;;;;;;;;;15.50;99.90;;;;;;5055608;28;19909;-68
2022/08/20 06:57:38;;;;;;;;;;;15.50;99.90;;;;;;5055731;28;19935;-68
2022/08/20 07:00:08;;;;;;;;;;;15.40;99.90;;;;;;5055265;28;19935;-68
2022/08/20 07:02:35;;;;;;;;;;;15.40;99.90;;;;;;5055496;28;19987;-67
2022/08/20 07:05:03;;;;;;;;;;;15.40;99.90;;;;;;5055443;28;19909;-68
2022/08/20 07:07:30;;;;;;;;;;;15.30;99.90;;;;;;5055476;28;20351;-68
2022/08/20 07:10:01;;;;;;;;;;;15.30;99.90;;;;;;5055536;28;19952;-68
2022/08/20 07:12:28;;;;;;;;;;;15.40;99.90;;;;;;5055167;28;20421;-68
2022/08/20 07:14:54;;;;;;;;;;;15.40;99.90;;;;;;5055356;28;20288;-68
2022/08/20 07:17:21;;;;;;;;;;;15.50;99.90;;;;;;5055104;28;19913;-68
2022/08/20 07:19:48;;;;;;;;;;;15.60;99.90;;;;;;5054872;28;19996;-68
2022/08/20 07:22:14;;;;;;;;;;;15.60;99.90;;;;;;5054935;28;20003;-69
2022/08/20 07:24:41;;;;;;;;;;;15.50;99.90;;;;;;5054864;28;19908;-68
2022/08/20 07:27:08;;;;;;;;;;;15.50;99.90;;;;;;5067064;28;20286;-69
2022/08/20 07:32:35;;;;;;;;;;;15.20;99.90;;;;;;5095539;28;20283;-70
2022/08/20 07:35:04;;;;;;;;;;;15.10;99.90;;;;;;5095797;28;20431;-68
2022/08/20 07:37:31;;;;;;;;;;;15.10;99.90;;;;;;5094324;28;19931;-69
2022/08/20 07:39:57;;;;;;;;;;;15.10;99.90;;;;;;5095478;28;19955;-69
2022/08/20 07:42:24;;;;;;;;;;;15.00;99.90;;;;;;5095443;28;19919;-69
2022/08/20 07:44:51;;;;;;;;;;;15.10;99.90;;;;;;5095372;28;19938;-68
2022/08/20 07:47:18;;;;;;;;;;;15.10;99.90;;;;;;5095463;28;20003;-69
2022/08/20 07:49:45;;;;;;;;;;;15.20;99.90;;;;;;5092503;28;20098;-69
2022/08/20 07:52:12;;;;;;;;;;;15.20;99.90;;;;;;5093161;28;20011;-69
2022/08/20 07:54:40;;;;;;;;;;;15.30;99.90;;;;;;5092971;28;19965;-69
2022/08/20 07:57:08;;;;;;;;;;;15.30;99.90;;;;;;5091764;28;19916;-70
2022/08/20 07:59:38;;;;;;;;;;;15.40;99.90;;;;;;5093006;28;19922;-69
2022/08/20 08:02:05;;;;;;;;;;;15.40;99.90;;;;;;5092559;28;19916;-69
2022/08/20 08:04:32;;;;;;;;;;;15.40;99.90;;;;;;5093007;28;19908;-68
2022/08/20 08:06:59;;;;;;;;;;;15.30;99.90;;;;;;5092828;28;20029;-69
2022/08/20 08:09:27;;;;;;;;;;;15.30;99.90;;;;;;5092762;28;19950;-69
2022/08/20 08:11:56;;;;;;;;;;;15.20;99.90;;;;;;5092890;28;19908;-69
2022/08/20 08:14:26;;;;;;;;;;;15.20;99.90;;;;;;5092553;28;19912;-69
2022/08/20 08:16:56;;;;;;;;;;;15.20;99.90;;;;;;5092781;28;19908;-69
2022/08/20 08:19:23;;;;;;;;;;;15.20;99.90;;;;;;5091428;28;19908;-68
2022/08/20 08:21:50;;;;;;;;;;;15.20;99.90;;;;;;5091335;28;20302;-68
2022/08/20 08:24:17;;;;;;;;;;;15.20;99.90;;;;;;5092356;28;19908;-69
2022/08/20 08:26:44;;;;;;;;;;;15.10;99.90;;;;;;5092775;28;19908;-68
2022/08/20 08:29:11;;;;;;;;;;;15.10;99.90;;;;;;5090802;28;20009;-68
2022/08/20 08:31:39;;;;;;;;;;;15.10;99.90;;;;;;5092521;28;19908;-69
2022/08/20 08:34:06;;;;;;;;;;;15.10;99.90;;;;;;5090923;28;19912;-69
2022/08/20 08:36:33;;;;;;;;;;;15.10;99.90;;;;;;5092405;28;20401;-70
2022/08/20 08:39:00;;;;;;;;;;;15.00;99.90;;;;;;5092569;28;20309;-69
2022/08/20 08:41:28;;;;;;;;;;;15.00;99.90;;;;;;5092100;28;19960;-69
2022/08/20 08:44:11;;;;;;;;;;;15.00;99.90;;;;;;5091645;28;19965;-70
2022/08/20 08:46:41;;;;;;;;;;;14.90;99.90;;;;;;5092238;28;19924;-69
2022/08/20 08:49:13;;;;;;;;;;;14.90;99.90;;;;;;5092273;28;19914;-68
2022/08/20 08:51:43;;;;;;;;;;;14.90;99.90;;;;;;5092188;28;19957;-67
2022/08/20 08:54:15;;;;;;;;;;;14.90;99.90;;;;;;5091454;28;19916;-68
2022/08/20 08:56:42;;;;;;;;;;;14.80;99.90;;;;;;5092161;28;19951;-67
2022/08/20 08:59:09;;;;;;;;;;;14.80;99.90;;;;;;5092008;28;20007;-68
2022/08/20 09:01:55;;;;;;;;;;;14.70;99.90;;;;;;5092069;28;19916;-69
2022/08/20 09:04:22;;;;;;;;;;;14.70;99.90;;;;;;5092396;28;19918;-68
2022/08/20 09:06:53;;;;;;;;;;;14.70;99.90;;;;;;5094158;28;19912;-69
2022/08/20 09:09:22;;;;;;;;;;;14.70;99.90;;;;;;5093817;28;19908;-69
2022/08/20 09:11:52;;;;;;;;;;;14.70;99.90;;;;;;5093982;28;20003;-68
2022/08/20 09:14:19;;;;;;;;;;;14.70;99.90;;;;;;5093729;28;20058;-68
2022/08/20 09:16:46;;;;;;;;;;;14.70;99.90;;;;;;5093811;28;19969;-69
2022/08/20 09:19:12;;;;;;;;;;;14.60;99.90;;;;;;5093764;28;19908;-68
2022/08/20 09:21:39;;;;;;;;;;;14.60;99.90;;;;;;5093813;28;20424;-68
2022/08/20 09:24:06;;;;;;;;;;;14.50;99.90;;;;;;5093275;28;19935;-69
2022/08/20 09:26:32;;;;;;;;;;;14.40;99.90;;;;;;5093731;28;19908;-68
2022/08/20 09:28:59;;;;;;;;;;;14.40;99.90;;;;;;5093691;28;19919;-68
2022/08/20 09:31:26;;;;;;;;;;;14.30;99.90;;;;;;5093575;28;19908;-68
2022/08/20 09:33:52;;;;;;;;;;;14.30;99.90;;;;;;5093706;28;19908;-68
2022/08/20 09:36:19;;;;;;;;;;;14.30;99.90;;;;;;5093361;28;20033;-68
2022/08/20 09:38:46;;;;;;;;;;;14.30;99.90;;;;;;5093399;28;20495;-68
2022/08/20 09:41:12;;;;;;;;;;;14.30;99.90;;;;;;5093512;28;19923;-68
2022/08/20 09:43:39;;;;;;;;;;;14.30;99.90;;;;;;5093472;28;19912;-68
2022/08/20 09:46:06;;;;;;;;;;;14.30;99.90;;;;;;5093246;28;20016;-68
2022/08/20 09:48:33;;;;;;;;;;;14.30;99.90;;;;;;5093535;28;19908;-68
2022/08/20 09:51:00;;;;;;;;;;;14.30;99.90;;;;;;5093449;28;19961;-69
2022/08/20 09:53:27;;;;;;;;;;;14.30;99.90;;;;;;5093375;28;19908;-68
2022/08/20 09:55:55;;;;;;;;;;;14.30;99.90;;;;;;5096093;28;19908;-68
2022/08/20 09:58:24;;;;;;;;;;;14.30;99.90;;;;;;5097416;28;19908;-69
2022/08/20 10:00:51;;;;;;;;;;;14.20;99.90;;;;;;5097615;28;20362;-69
2022/08/20 10:03:18;;;;;;;;;;;14.20;99.90;;;;;;5097545;28;20381;-68
2022/08/20 10:05:45;;;;;;;;;;;14.10;99.90;;;;;;5097542;28;19962;-68
2022/08/20 10:08:12;;;;;;;;;;;14.10;99.90;;;;;;5097125;28;19908;-70
2022/08/20 10:10:39;;;;;;;;;;;14.10;99.90;;;;;;5097344;28;20259;-69
2022/08/20 10:13:06;;;;;;;;;;;14.00;99.90;;;;;;5097313;28;20002;-69
2022/08/20 10:15:32;;;;;;;;;;;14.00;99.90;;;;;;5097319;28;19999;-69
2022/08/20 10:18:04;;;;;;;;;;;14.00;99.90;;;;;;5097181;28;20362;-70
2022/08/20 10:20:31;;;;;;;;;;;14.00;99.90;;;;;;5097067;28;20354;-69
2022/08/20 10:22:57;;;;;;;;;;;14.00;99.90;;;;;;5097099;28;19908;-69
2022/08/20 10:25:24;;;;;;;;;;;14.00;99.90;;;;;;5097165;28;19908;-69
2022/08/20 10:27:51;;;;;;;;;;;13.90;99.90;;;;;;5096969;28;19908;-69
2022/08/20 10:30:18;;;;;;;;;;;13.90;99.90;;;;;;5096852;28;19914;-69
2022/08/20 10:32:45;;;;;;;;;;;13.90;99.90;;;;;;5096935;28;19908;-70
2022/08/20 10:35:11;;;;;;;;;;;13.90;99.90;;;;;;5095696;28;20270;-70
2022/08/20 10:37:38;;;;;;;;;;;13.90;99.90;;;;;;5096992;28;19908;-69
2022/08/20 10:40:05;;;;;;;;;;;13.90;99.90;;;;;;5096591;28;19919;-68
2022/08/20 10:42:32;;;;;;;;;;;13.90;99.90;;;;;;5095619;28;20040;-68
2022/08/20 10:44:59;;;;;;;;;;;13.90;99.90;;;;;;5096491;28;20002;-68
2022/08/20 10:47:30;;;;;;;;;;;13.90;99.90;;;;;;5096188;28;19908;-68
2022/08/20 10:49:57;;;;;;;;;;;13.90;99.90;;;;;;5096748;28;19908;-67
2022/08/20 10:52:24;;;;;;;;;;;13.80;99.90;;;;;;5096198;28;19943;-68
2022/08/20 10:54:51;;;;;;;;;;;13.80;99.90;;;;;;5096552;28;19908;-68
2022/08/20 10:57:19;;;;;;;;;;;13.80;99.90;;;;;;5096625;28;20339;-69
2022/08/20 10:59:47;;;;;;;;;;;13.80;99.90;;;;;;5096405;28;19919;-69
2022/08/20 11:02:14;;;;;;;;;;;13.80;99.90;;;;;;5096264;28;20363;-69
2022/08/20 11:04:41;;;;;;;;;;;13.80;99.90;;;;;;5096371;28;19908;-69
2022/08/20 11:07:10;;;;;;;;;;;13.70;99.90;;;;;;5095306;28;20050;-69
2022/08/20 11:09:37;;;;;;;;;;;13.70;99.90;;;;;;5096103;28;19961;-70
2022/08/20 11:12:04;;;;;;;;;;;13.70;99.90;;;;;;5096092;28;19908;-69
2022/08/20 11:14:32;;;;;;;;;;;13.70;99.90;;;;;;5096238;28;19915;-69
2022/08/20 11:17:00;;;;;;;;;;;13.70;99.90;;;;;;5096076;28;20112;-69
2022/08/20 11:19:26;;;;;;;;;;;13.70;99.90;;;;;;5096157;28;19912;-69
2022/08/20 11:21:53;;;;;;;;;;;13.70;99.90;;;;;;5095709;28;20032;-70
2022/08/20 11:24:20;;;;;;;;;;;13.70;99.90;;;;;;5095716;28;20277;-70
2022/08/20 11:26:47;;;;;;;;;;;13.70;99.90;;;;;;5096002;28;19912;-70
2022/08/20 11:29:14;;;;;;;;;;;13.60;99.90;;;;;;5095931;28;19914;-69
2022/08/20 11:31:41;;;;;;;;;;;13.60;99.90;;;;;;5095882;28;19908;-69
2022/08/20 11:34:07;;;;;;;;;;;13.60;99.90;;;;;;5095671;28;19908;-68
2022/08/20 11:36:34;;;;;;;;;;;13.60;99.90;;;;;;5095607;28;19912;-68
2022/08/20 11:39:01;;;;;;;;;;;13.60;99.90;;;;;;5095797;28;19908;-68
2022/08/20 11:41:28;;;;;;;;;;;13.60;99.90;;;;;;5095629;28;20268;-68
2022/08/20 11:43:54;;;;;;;;;;;13.60;99.90;;;;;;5095698;28;19999;-68
2022/08/20 11:46:21;;;;;;;;;;;13.50;99.90;;;;;;5095176;28;19924;-68
2022/08/20 11:48:48;;;;;;;;;;;13.40;99.90;;;;;;5095550;28;20260;-68
2022/08/20 11:51:14;;;;;;;;;;;13.30;99.90;;;;;;5095511;28;19908;-68
2022/08/20 11:53:41;;;;;;;;;;;13.30;99.90;;;;;;5095593;28;19961;-68
2022/08/20 11:56:08;;;;;;;;;;;13.30;99.90;;;;;;5095160;28;20514;-68
2022/08/20 11:58:34;;;;;;;;;;;13.30;99.90;;;;;;5095587;28;19915;-68
2022/08/20 12:01:01;;;;;;;;;;;13.30;99.90;;;;;;5095244;28;19923;-68
2022/08/20 12:03:29;;;;;;;;;;;13.30;99.90;;;;;;5095373;28;19915;-68
2022/08/20 12:05:56;;;;;;;;;;;13.30;99.90;;;;;;5095212;28;19954;-69
2022/08/20 12:08:23;;;;;;;;;;;13.20;99.90;;;;;;5094929;28;19991;-69
2022/08/20 12:10:50;;;;;;;;;;;13.20;99.90;;;;;;5095149;28;19916;-68
2022/08/20 12:13:16;;;;;;;;;;;13.20;99.90;;;;;;5095288;28;20259;-68
2022/08/20 12:15:43;;;;;;;;;;;13.20;99.90;;;;;;5095231;28;19943;-68
2022/08/20 12:18:10;;;;;;;;;;;13.10;99.90;;;;;;5094925;28;19915;-68
2022/08/20 12:20:37;;;;;;;;;;;13.10;99.90;;;;;;5094957;28;19916;-68
2022/08/20 12:23:03;;;;;;;;;;;13.10;99.90;;;;;;5093505;28;20286;-68
2022/08/20 12:25:30;;;;;;;;;;;13.10;99.90;;;;;;5094894;28;19909;-68
2022/08/20 12:27:58;;;;;;;;;;;13.10;99.90;;;;;;5095004;28;19908;-68
2022/08/20 12:30:25;;;;;;;;;;;13.00;99.90;;;;;;5094699;28;19915;-69
2022/08/20 12:32:51;;;;;;;;;;;13.00;99.90;;;;;;5093501;28;19908;-68
2022/08/20 12:35:19;;;;;;;;;;;13.00;99.90;;;;;;5094675;28;19997;-67
2022/08/20 12:37:46;;;;;;;;;;;13.00;99.90;;;;;;5094478;28;20041;-68
2022/08/20 12:40:15;;;;;;;;;;;13.00;99.90;;;;;;5094394;28;19919;-68
2022/08/20 12:42:41;;;;;;;;;;;13.00;99.90;;;;;;5094761;28;19923;-68
2022/08/20 12:45:09;;;;;;;;;;;12.90;99.90;;;;;;5094469;28;20020;-68
2022/08/20 12:47:40;;;;;;;;;;;12.90;99.90;;;;;;5093143;28;19948;-68
2022/08/20 12:50:11;;;;;;;;;;;12.90;99.90;;;;;;5094418;28;20259;-68
2022/08/20 12:52:38;;;;;;;;;;;12.90;99.90;;;;;;5083679;28;19909;-69
2022/08/20 12:55:06;;;;;;;;;;;12.80;99.90;;;;;;5054193;28;19909;-67
2022/08/20 12:57:37;;;;;;;;;;;12.80;99.90;;;;;;5053999;28;19909;-67
2022/08/20 13:00:06;;;;;;;;;;;12.80;99.90;;;;;;5053693;28;20364;-68
2022/08/20 13:02:33;;;;;;;;;;;12.80;99.90;;;;;;5054067;28;19959;-67
2022/08/20 13:05:00;;;;;;;;;;;12.80;99.90;;;;;;5053977;28;19909;-68
2022/08/20 13:07:27;;;;;;;;;;;12.80;99.90;;;;;;5053099;28;19909;-69
2022/08/20 13:09:53;;;;;;;;;;;12.90;99.90;;;;;;5053804;28;19909;-69
2022/08/20 13:12:20;;;;;;;;;;;12.80;99.90;;;;;;5053491;28;20287;-68
2022/08/20 13:14:47;;;;;;;;;;;12.90;99.90;;;;;;5053727;28;19909;-69
2022/08/20 13:17:16;;;;;;;;;;;12.80;99.90;;;;;;5053631;28;19962;-71
2022/08/20 13:19:44;;;;;;;;;;;12.80;99.90;;;;;;5053685;28;19909;-70
2022/08/20 13:22:11;;;;;;;;;;;12.80;99.90;;;;;;5052982;28;20232;-69
2022/08/20 13:24:38;;;;;;;;;;;12.80;99.90;;;;;;5053160;28;19909;-69
2022/08/20 13:27:05;;;;;;;;;;;12.80;99.90;;;;;;5053560;28;19915;-68
2022/08/20 13:29:32;;;;;;;;;;;12.80;99.90;;;;;;5053148;28;19916;-70
2022/08/20 13:31:59;;;;;;;;;;;12.80;99.90;;;;;;5053404;28;19920;-70
2022/08/20 13:34:25;;;;;;;;;;;12.80;99.90;;;;;;5053455;28;20371;-70
2022/08/20 13:36:54;;;;;;;;;;;12.80;99.90;;;;;;5053228;28;19916;-69
2022/08/20 13:39:21;;;;;;;;;;;12.80;99.90;;;;;;5052796;28;19962;-69
2022/08/20 13:41:48;;;;;;;;;;;12.90;99.90;;;;;;5053275;28;20007;-69
2022/08/20 13:44:14;;;;;;;;;;;12.80;99.90;;;;;;5053202;28;19909;-69
2022/08/20 13:46:41;;;;;;;;;;;12.80;99.90;;;;;;5053232;28;19931;-70
2022/08/20 13:49:08;;;;;;;;;;;12.80;99.90;;;;;;5053291;28;19909;-69
2022/08/20 13:51:35;;;;;;;;;;;12.80;99.90;;;;;;5053291;28;19944;-71
2022/08/20 13:54:01;;;;;;;;;;;12.80;99.90;;;;;;5052420;28;19909;-68
2022/08/20 13:56:28;;;;;;;;;;;12.80;99.90;;;;;;5062905;28;19909;-70
2022/08/20 13:58:55;;;;;;;;;;;12.70;99.90;;;;;;5072028;28;19909;-69
2022/08/20 14:01:21;;;;;;;;;;;12.70;99.90;;;;;;5073116;28;19916;-70
2022/08/20 14:03:48;;;;;;;;;;;12.80;99.90;;;;;;5073320;28;19915;-70
2022/08/20 14:06:15;;;;;;;;;;;12.80;99.90;;;;;;5072889;28;19909;-70
2022/08/20 14:08:41;;;;;;;;;;;12.80;99.90;;;;;;5073362;28;19955;-70
2022/08/20 14:11:08;;;;;;;;;;;12.80;99.90;;;;;;5073304;28;19908;-69
2022/08/20 14:13:35;;;;;;;;;;;12.80;99.90;;;;;;5073448;28;19934;-70
2022/08/20 14:16:01;;;;;;;;;;;12.80;99.90;;;;;;5073593;28;20307;-68
2022/08/20 14:18:29;;;;;;;;;;;12.80;99.90;;;;;;5074041;28;20007;-68
2022/08/20 14:20:56;;;;;;;;;;;12.80;99.90;;;;;;5073391;28;19924;-70
2022/08/20 14:23:23;;;;;;;;;;;12.80;99.90;;;;;;5075998;28;20011;-67
2022/08/20 14:25:50;;;;;;;;;;;12.80;99.90;;;;;;5085904;28;19936;-68